createdAt,value
2023-03-21T00:00:29.735Z,-74
2023-03-21T00:02:56.370Z,-74
2023-03-21T00:05:23.605Z,-73
2023-03-21T00:07:50.622Z,-73
2023-03-21T00:13:05.697Z,-73
2023-03-21T00:15:42.671Z,-74
2023-03-21T00:18:15.945Z,-74
2023-03-21T00:20:47.325Z,-73
2023-03-21T00:23:14.069Z,-72
2023-03-21T00:25:40.822Z,-72
2023-03-21T00:28:08.738Z,-72
2023-03-21T00:30:35.474Z,-73
2023-03-21T00:33:12.127Z,-72
2023-03-21T00:36:06.003Z,-73
2023-03-21T00:38:33.680Z,-73
2023-03-21T00:41:04.585Z,-73
2023-03-21T00:43:34.385Z,-74
2023-03-21T00:46:00.933Z,-73
2023-03-21T00:48:27.992Z,-74
2023-03-21T00:50:57.183Z,-75
2023-03-21T00:53:24.042Z,-73
2023-03-21T00:55:50.574Z,-74
2023-03-21T00:58:18.080Z,-73
2023-03-21T01:00:47.050Z,-72
2023-03-21T01:03:24.277Z,-73
2023-03-21T01:06:04.534Z,-74
2023-03-21T01:08:54.812Z,-73
2023-03-21T01:11:27.050Z,-73
2023-03-21T01:14:04.144Z,-74
2023-03-21T01:16:35.224Z,-72
2023-03-21T01:19:05.194Z,-73
2023-03-21T01:21:36.218Z,-74
2023-03-21T01:24:03.167Z,-73
2023-03-21T01:26:29.920Z,-73
2023-03-21T01:28:56.423Z,-74
2023-03-21T01:31:23.057Z,-74
2023-03-21T01:33:49.622Z,-72
2023-03-21T01:36:22.653Z,-73
2023-03-21T01:38:49.959Z,-73
2023-03-21T01:41:42.029Z,-73
2023-03-21T01:44:16.945Z,-73
2023-03-21T01:46:57.426Z,-76
2023-03-21T01:49:40.968Z,-75
2023-03-21T01:52:17.022Z,-75
2023-03-21T01:54:48.078Z,-74
2023-03-21T01:57:35.494Z,-75
2023-03-21T02:00:12.636Z,-73
2023-03-21T02:02:52.206Z,-75
2023-03-21T02:05:24.905Z,-74
2023-03-21T02:07:53.002Z,-74
2023-03-21T02:10:20.569Z,-73
2023-03-21T02:12:47.456Z,-75
2023-03-21T02:15:14.644Z,-76
2023-03-21T02:18:03.772Z,-75
2023-03-21T02:21:00.746Z,-74
2023-03-21T02:23:39.123Z,-75
2023-03-21T02:26:45.137Z,-74
2023-03-21T02:29:13.132Z,-74
2023-03-21T02:32:16.472Z,-76
2023-03-21T02:35:17.192Z,-75
2023-03-21T02:38:00.651Z,-74
2023-03-21T02:40:39.948Z,-74
2023-03-21T02:43:25.998Z,-75
2023-03-21T02:45:59.513Z,-76
2023-03-21T02:48:44.791Z,-74
2023-03-21T02:51:21.191Z,-76
2023-03-21T02:54:12.977Z,-75
2023-03-21T02:56:41.446Z,-75
2023-03-21T02:59:08.873Z,-74
2023-03-21T03:01:36.269Z,-74
2023-03-21T03:04:03.368Z,-76
2023-03-21T03:06:52.687Z,-76
2023-03-21T03:09:55.695Z,-77
2023-03-21T03:12:55.947Z,-76
2023-03-21T03:16:06.569Z,-75
2023-03-21T03:18:48.774Z,-75
2023-03-21T03:21:40.718Z,-76
2023-03-21T03:24:13.857Z,-75
2023-03-21T03:26:54.369Z,-75
2023-03-21T03:29:23.230Z,-74
2023-03-21T03:32:09.044Z,-74
2023-03-21T03:34:40.460Z,-75
2023-03-21T03:37:10.567Z,-75
2023-03-21T03:39:47.724Z,-75
2023-03-21T03:42:28.534Z,-75
2023-03-21T03:44:55.983Z,-75
2023-03-21T03:47:56.058Z,-75
2023-03-21T03:50:38.695Z,-76
2023-03-21T03:53:28.438Z,-75
2023-03-21T03:55:57.121Z,-74
2023-03-21T03:58:36.145Z,-74
2023-03-21T04:01:10.058Z,-74
2023-03-21T04:03:48.985Z,-72
2023-03-21T04:06:17.643Z,-74
2023-03-21T04:08:44.605Z,-75
2023-03-21T04:11:14.057Z,-73
2023-03-21T04:13:42.047Z,-74
2023-03-21T04:16:10.296Z,-74
2023-03-21T04:18:39.184Z,-74
2023-03-21T04:21:10.837Z,-74
2023-03-21T04:23:38.139Z,-76
2023-03-21T04:26:05.686Z,-74
2023-03-21T04:28:33.529Z,-75
2023-03-21T04:31:05.245Z,-74
2023-03-21T04:33:38.503Z,-74
2023-03-21T04:36:09.443Z,-74
2023-03-21T04:38:36.490Z,-75
2023-03-21T04:41:03.769Z,-74
2023-03-21T04:43:32.623Z,-75
2023-03-21T04:45:59.279Z,-74
2023-03-21T04:48:26.267Z,-74
2023-03-21T04:50:52.813Z,-74
2023-03-21T04:53:19.586Z,-74
2023-03-21T04:55:46.117Z,-76
2023-03-21T04:58:12.818Z,-73
2023-03-21T05:00:40.319Z,-73
2023-03-21T05:03:10.768Z,-74
2023-03-21T05:05:39.050Z,-76
2023-03-21T05:08:06.450Z,-75
2023-03-21T05:10:33.298Z,-75
2023-03-21T05:12:59.880Z,-76
2023-03-21T05:15:26.336Z,-75
2023-03-21T05:17:52.995Z,-76
2023-03-21T05:20:19.837Z,-75
2023-03-21T05:22:50.125Z,-75
2023-03-21T05:25:18.361Z,-75
2023-03-21T05:27:54.168Z,-75
2023-03-21T05:30:20.973Z,-75
2023-03-21T05:32:47.807Z,-74
2023-03-21T05:35:14.375Z,-73
2023-03-21T05:37:40.853Z,-73
2023-03-21T05:40:08.867Z,-76
2023-03-21T05:42:35.517Z,-74
2023-03-21T05:45:02.368Z,-74
2023-03-21T05:47:28.903Z,-72
2023-03-21T05:49:55.374Z,-71
2023-03-21T05:52:21.885Z,-72
2023-03-21T05:54:48.557Z,-72
2023-03-21T05:57:15.669Z,-72
2023-03-21T05:59:42.116Z,-72
2023-03-21T06:02:08.992Z,-72
2023-03-21T06:04:36.106Z,-71
2023-03-21T06:07:02.646Z,-71
2023-03-21T06:09:29.550Z,-72
2023-03-21T06:11:57.247Z,-72
2023-03-21T06:14:24.646Z,-72
2023-03-21T06:16:52.536Z,-72
2023-03-21T06:19:26.241Z,-73
2023-03-21T06:21:52.763Z,-72
2023-03-21T06:24:19.215Z,-74
2023-03-21T06:26:47.447Z,-71
2023-03-21T06:29:14.048Z,-72
2023-03-21T06:31:40.869Z,-70
2023-03-21T06:34:07.772Z,-71
2023-03-21T06:36:34.345Z,-71
2023-03-21T06:39:00.920Z,-73
2023-03-21T06:41:27.462Z,-72
2023-03-21T06:43:54.022Z,-74
2023-03-21T06:46:20.594Z,-73
2023-03-21T06:48:47.210Z,-72
2023-03-21T06:51:14.934Z,-71
2023-03-21T06:53:41.580Z,-72
2023-03-21T06:56:10.200Z,-72
2023-03-21T06:58:36.776Z,-73
2023-03-21T07:01:04.741Z,-72
2023-03-21T07:03:32.045Z,-72
2023-03-21T07:05:58.726Z,-71
2023-03-21T07:08:25.355Z,-73
2023-03-21T07:10:57.440Z,-72
2023-03-21T07:13:24.397Z,-75
2023-03-21T07:15:53.292Z,-73
2023-03-21T07:18:19.864Z,-70
2023-03-21T07:20:51.326Z,-73
2023-03-21T07:23:19.148Z,-72
2023-03-21T07:25:48.418Z,-73
2023-03-21T07:28:16.490Z,-72
2023-03-21T07:30:43.786Z,-72
2023-03-21T07:33:10.917Z,-71
2023-03-21T07:35:37.919Z,-71
2023-03-21T07:38:05.839Z,-71
2023-03-21T07:40:32.976Z,-73
2023-03-21T07:42:59.632Z,-71
2023-03-21T07:45:27.395Z,-71
2023-03-21T07:47:54.588Z,-72
2023-03-21T07:50:21.504Z,-75
2023-03-21T07:52:48.394Z,-71
2023-03-21T07:55:17.317Z,-72
2023-03-21T07:57:43.888Z,-73
2023-03-21T08:00:11.262Z,-73
2023-03-21T08:02:37.932Z,-74
2023-03-21T08:05:04.810Z,-72
2023-03-21T08:07:31.513Z,-71
2023-03-21T08:09:58.049Z,-73
2023-03-21T08:12:25.032Z,-73
2023-03-21T08:14:52.242Z,-71
2023-03-21T08:17:19.166Z,-72
2023-03-21T08:19:45.772Z,-72
2023-03-21T08:22:12.457Z,-72
2023-03-21T08:24:38.999Z,-73
2023-03-21T08:27:05.863Z,-72
2023-03-21T08:29:32.534Z,-73
2023-03-21T08:31:59.074Z,-74
2023-03-21T08:34:26.466Z,-71
2023-03-21T08:36:53.080Z,-72
2023-03-21T08:39:21.836Z,-71
2023-03-21T08:41:48.490Z,-72
2023-03-21T08:44:16.954Z,-76
2023-03-21T08:46:43.592Z,-75
2023-03-21T08:49:10.154Z,-75
2023-03-21T08:51:37.720Z,-74
2023-03-21T08:54:04.462Z,-75
2023-03-21T08:56:31.245Z,-75
2023-03-21T08:58:59.027Z,-75
2023-03-21T09:01:26.315Z,-74
2023-03-21T09:03:53.210Z,-74
2023-03-21T09:06:19.772Z,-74
2023-03-21T09:08:46.448Z,-74
2023-03-21T09:11:13.130Z,-74
2023-03-21T09:13:39.672Z,-74
2023-03-21T09:16:06.600Z,-73
2023-03-21T09:18:47.301Z,-74
2023-03-21T09:21:16.612Z,-74
2023-03-21T09:23:49.168Z,-74
2023-03-21T09:26:16.555Z,-73
2023-03-21T09:28:43.045Z,-74
2023-03-21T09:31:12.386Z,-75
2023-03-21T09:33:43.350Z,-75
2023-03-21T09:36:19.496Z,-75
2023-03-21T09:38:47.273Z,-75
2023-03-21T09:41:32.423Z,-75
2023-03-21T09:44:23.119Z,-75
2023-03-21T09:47:05.628Z,-75
2023-03-21T09:49:43.598Z,-75
2023-03-21T09:52:18.901Z,-75
2023-03-21T09:54:45.797Z,-75
2023-03-21T09:57:32.596Z,-75
2023-03-21T10:00:08.146Z,-75
2023-03-21T10:02:36.230Z,-74
2023-03-21T10:05:13.188Z,-75
2023-03-21T10:07:44.696Z,-75
2023-03-21T10:10:18.893Z,-75
2023-03-21T10:12:47.227Z,-75
2023-03-21T10:15:21.464Z,-75
2023-03-21T10:17:55.279Z,-75
2023-03-21T10:20:29.586Z,-74
2023-03-21T10:22:58.278Z,-75
2023-03-21T10:25:34.741Z,-74
2023-03-21T10:28:02.340Z,-74
2023-03-21T10:30:44.426Z,-75
2023-03-21T10:33:36.322Z,-73
2023-03-21T10:36:07.124Z,-74
2023-03-21T10:38:35.445Z,-74
2023-03-21T10:41:01.896Z,-75
2023-03-21T10:43:29.757Z,-73
2023-03-21T10:45:57.073Z,-73
2023-03-21T10:48:24.797Z,-74
2023-03-21T10:50:56.182Z,-73
2023-03-21T10:53:30.342Z,-73
2023-03-21T10:56:00.606Z,-73
2023-03-21T10:58:33.380Z,-74
2023-03-21T11:01:07.245Z,-76
2023-03-21T11:03:38.615Z,-74
2023-03-21T11:06:27.285Z,-74
2023-03-21T11:09:01.708Z,-74
2023-03-21T11:11:49.543Z,-74
2023-03-21T11:14:41.134Z,-75
2023-03-21T11:17:16.802Z,-75
2023-03-21T11:19:52.823Z,-75
2023-03-21T11:22:25.572Z,-75
2023-03-21T11:24:56.692Z,-75
2023-03-21T11:27:24.782Z,-74
2023-03-21T11:29:52.184Z,-74
2023-03-21T11:32:36.220Z,-75
2023-03-21T11:35:28.112Z,-72
2023-03-21T11:37:56.688Z,-73
2023-03-21T11:40:26.294Z,-73
2023-03-21T11:43:02.025Z,-72
2023-03-21T11:45:31.430Z,-72
2023-03-21T11:48:00.824Z,-73
2023-03-21T11:50:40.772Z,-75
2023-03-21T11:53:39.602Z,-72
2023-03-21T11:56:12.512Z,-73
2023-03-21T11:58:45.220Z,-73
2023-03-21T12:01:53.228Z,-72
2023-03-21T12:04:37.228Z,-73
2023-03-21T12:07:03.682Z,-73
2023-03-21T12:09:47.773Z,-73
2023-03-21T12:12:14.219Z,-73
2023-03-21T12:15:07.439Z,-73
2023-03-21T12:17:58.640Z,-73
2023-03-21T12:20:28.207Z,-73
2023-03-21T12:23:11.548Z,-73
2023-03-21T12:25:56.541Z,-73
2023-03-21T12:28:54.038Z,-72
2023-03-21T12:31:53.038Z,-72
2023-03-21T12:34:36.976Z,-72
2023-03-21T12:37:21.769Z,-73
2023-03-21T12:39:49.928Z,-73
2023-03-21T12:42:34.767Z,-73
2023-03-21T12:45:15.213Z,-73
2023-03-21T12:47:49.831Z,-73
2023-03-21T12:50:26.773Z,-72
2023-03-21T12:52:59.954Z,-74
2023-03-21T12:55:33.474Z,-72
2023-03-21T12:58:18.319Z,-71
2023-03-21T13:00:53.450Z,-73
2023-03-21T13:03:27.639Z,-73
2023-03-21T13:06:06.181Z,-72
2023-03-21T13:08:38.371Z,-72
2023-03-21T13:11:07.624Z,-73
2023-03-21T13:14:06.033Z,-71
2023-03-21T13:16:37.375Z,-72
2023-03-21T13:19:15.774Z,-72
2023-03-21T13:21:42.354Z,-73
2023-03-21T13:24:33.726Z,-73
2023-03-21T13:27:26.458Z,-72
2023-03-21T13:30:00.168Z,-72
2023-03-21T13:32:26.799Z,-73
2023-03-21T13:34:59.642Z,-73
2023-03-21T13:37:31.149Z,-74
2023-03-21T13:40:09.360Z,-73
2023-03-21T13:42:42.514Z,-73
2023-03-21T13:45:25.532Z,-74
2023-03-21T13:48:03.493Z,-73
2023-03-21T13:50:36.481Z,-73
2023-03-21T13:53:14.927Z,-73
2023-03-21T13:55:44.905Z,-73
2023-03-21T13:58:32.266Z,-73
2023-03-21T14:01:35.699Z,-73
2023-03-21T14:04:20.835Z,-72
2023-03-21T14:07:01.869Z,-72
2023-03-21T14:09:36.383Z,-72
2023-03-21T14:12:07.821Z,-70
2023-03-21T14:14:40.433Z,-70
2023-03-21T14:17:14.338Z,-70
2023-03-21T14:19:40.860Z,-71
2023-03-21T14:22:13.236Z,-72
2023-03-21T14:24:41.266Z,-73
2023-03-21T14:27:08.890Z,-72
2023-03-21T14:29:35.865Z,-72
2023-03-21T14:32:03.699Z,-72
2023-03-21T14:34:33.289Z,-72
2023-03-21T14:36:59.829Z,-71
2023-03-21T14:39:31.991Z,-72
2023-03-21T14:42:11.014Z,-74
2023-03-21T14:44:52.878Z,-72
2023-03-21T14:47:26.137Z,-73
2023-03-21T14:49:53.071Z,-73
2023-03-21T14:52:30.035Z,-72
2023-03-21T14:54:57.185Z,-73
2023-03-21T14:57:29.030Z,-73
2023-03-21T15:00:00.167Z,-73
2023-03-21T15:02:31.633Z,-73
2023-03-21T15:05:05.421Z,-73
2023-03-21T15:07:34.358Z,-72
2023-03-21T15:10:05.922Z,-73
2023-03-21T15:12:33.310Z,-73
2023-03-21T15:15:01.715Z,-73
2023-03-21T15:17:29.084Z,-73
2023-03-21T15:19:55.620Z,-73
2023-03-21T15:22:41.492Z,-73
2023-03-21T15:25:13.084Z,-72
2023-03-21T15:27:42.168Z,-73
2023-03-21T15:30:23.794Z,-73
2023-03-21T15:32:51.178Z,-73
2023-03-21T15:35:27.486Z,-73
2023-03-21T15:37:56.760Z,-72
2023-03-21T15:40:26.535Z,-72
2023-03-21T15:43:14.846Z,-72
2023-03-21T15:45:54.679Z,-72
2023-03-21T15:48:26.766Z,-72
2023-03-21T15:51:23.715Z,-72
2023-03-21T15:53:54.703Z,-72
2023-03-21T15:56:22.305Z,-73
2023-03-21T15:58:52.768Z,-72
2023-03-21T16:01:22.100Z,-72
2023-03-21T16:03:56.265Z,-73
2023-03-21T16:06:30.131Z,-72
2023-03-21T16:09:09.148Z,-72
2023-03-21T16:11:42.577Z,-73
2023-03-21T16:14:09.807Z,-72
2023-03-21T16:16:36.688Z,-72
2023-03-21T16:19:03.791Z,-72
2023-03-21T16:21:31.617Z,-72
2023-03-21T16:23:58.742Z,-72
2023-03-21T16:26:28.605Z,-72
2023-03-21T16:28:55.407Z,-71
2023-03-21T16:31:24.634Z,-73
2023-03-21T16:33:51.656Z,-72
2023-03-21T16:36:21.425Z,-73
2023-03-21T16:38:52.934Z,-73
2023-03-21T16:41:20.642Z,-73
2023-03-21T16:43:47.641Z,-71
2023-03-21T16:46:19.679Z,-72
2023-03-21T16:48:48.996Z,-73
2023-03-21T16:51:21.661Z,-73
2023-03-21T16:53:49.497Z,-72
2023-03-21T16:56:26.050Z,-73
2023-03-21T16:58:56.903Z,-72
2023-03-21T17:01:27.380Z,-72
2023-03-21T17:03:54.317Z,-72
2023-03-21T17:06:23.410Z,-73
2023-03-21T17:08:50.898Z,-73
2023-03-21T17:11:22.663Z,-73
2023-03-21T17:13:54.351Z,-73
2023-03-21T17:16:26.720Z,-76
2023-03-21T17:18:54.399Z,-73
2023-03-21T17:21:26.492Z,-77
2023-03-21T17:23:53.993Z,-72
2023-03-21T17:26:27.241Z,-71
2023-03-21T17:28:57.368Z,-72
2023-03-21T17:31:26.122Z,-72
2023-03-21T17:33:52.780Z,-72
2023-03-21T17:36:34.923Z,-72
2023-03-21T17:39:04.501Z,-72
2023-03-21T17:41:30.952Z,-71
2023-03-21T17:43:57.480Z,-72
2023-03-21T17:46:27.203Z,-73
2023-03-21T17:48:53.728Z,-71
2023-03-21T17:51:20.377Z,-72
2023-03-21T17:53:50.643Z,-72
2023-03-21T17:56:31.795Z,-71
2023-03-21T17:59:07.437Z,-73
2023-03-21T18:01:35.477Z,-72
2023-03-21T18:04:04.812Z,-73
2023-03-21T18:06:33.984Z,-74
2023-03-21T18:09:01.478Z,-71
2023-03-21T18:11:27.982Z,-72
2023-03-21T18:14:06.599Z,-74
2023-03-21T18:16:36.667Z,-73
2023-03-21T18:19:03.573Z,-73
2023-03-21T18:21:33.103Z,-74
2023-03-21T18:23:59.621Z,-72
2023-03-21T18:26:26.131Z,-72
2023-03-21T18:29:36.785Z,-71
2023-03-21T18:31:39.593Z,-73
2023-03-21T18:34:06.216Z,-73
2023-03-21T18:36:33.964Z,-73
2023-03-21T18:39:02.664Z,-73
2023-03-21T18:41:29.448Z,-73
2023-03-21T18:44:01.245Z,-75
2023-03-21T18:46:36.836Z,-73
2023-03-21T18:49:33.735Z,-74
2023-03-21T18:51:51.413Z,-74
2023-03-21T18:54:18.102Z,-73
2023-03-21T18:57:31.679Z,-73
2023-03-21T18:59:38.935Z,-72
2023-03-21T19:02:05.977Z,-74
2023-03-21T19:04:33.705Z,-75
2023-03-21T19:07:00.369Z,-73
2023-03-21T19:09:31.152Z,-74
2023-03-21T19:11:59.227Z,-74
2023-03-21T19:14:25.706Z,-73
2023-03-21T19:19:39.407Z,-74
2023-03-21T19:22:06.584Z,-74
2023-03-21T19:24:33.243Z,-73
2023-03-21T19:26:59.863Z,-74
2023-03-21T19:29:26.584Z,-74
2023-03-21T19:31:53.587Z,-73
2023-03-21T19:34:20.792Z,-76
2023-03-21T19:36:51.386Z,-73
2023-03-21T19:39:22.072Z,-74
2023-03-21T19:41:48.904Z,-74
2023-03-21T19:44:15.437Z,-73
2023-03-21T19:46:42.133Z,-74
2023-03-21T19:49:08.896Z,-73
2023-03-21T19:51:35.857Z,-73
2023-03-21T19:54:05.670Z,-72
2023-03-21T19:56:34.588Z,-73
2023-03-21T19:59:02.920Z,-73
2023-03-21T20:01:30.397Z,-72
2023-03-21T20:03:56.917Z,-73
2023-03-21T20:06:26.870Z,-73
2023-03-21T20:09:34.038Z,-72
2023-03-21T20:11:41.454Z,-74
2023-03-21T20:14:08.439Z,-73
2023-03-21T20:16:36.739Z,-73
2023-03-21T20:19:06.086Z,-74
2023-03-21T20:21:42.447Z,-73
2023-03-21T20:24:13.004Z,-74
2023-03-21T20:26:39.532Z,-73
2023-03-21T20:29:48.407Z,-75
2023-03-21T20:31:53.248Z,-74
2023-03-21T20:34:20.543Z,-73
2023-03-21T20:36:48.172Z,-73
2023-03-21T20:39:15.389Z,-74
2023-03-21T20:41:41.939Z,-74
2023-03-21T20:46:56.609Z,-74
2023-03-21T20:49:24.429Z,-74
2023-03-21T20:52:47.859Z,-74
2023-03-21T20:54:37.866Z,-73
2023-03-21T20:57:05.062Z,-73
2023-03-21T20:59:31.704Z,-75
2023-03-21T21:01:58.671Z,-72
2023-03-21T21:04:52.796Z,-72
2023-03-21T21:07:22.625Z,-74
2023-03-21T21:09:50.183Z,-73
2023-03-21T21:12:19.337Z,-73
2023-03-21T21:14:46.787Z,-73
2023-03-21T21:20:01.656Z,-73
2023-03-21T21:22:28.892Z,-73
2023-03-21T21:24:55.391Z,-74
2023-03-21T21:27:24.258Z,-72
2023-03-21T21:29:50.792Z,-73
2023-03-21T21:32:19.179Z,-74
2023-03-21T21:34:45.706Z,-73
2023-03-21T21:37:12.487Z,-73
2023-03-21T21:39:40.244Z,-72
2023-03-21T21:42:06.766Z,-73
2023-03-21T21:44:33.362Z,-73
2023-03-21T21:46:59.924Z,-75
2023-03-21T21:49:26.991Z,-74
2023-03-21T21:51:53.557Z,-74
2023-03-21T21:54:20.063Z,-74
2023-03-21T21:56:49.126Z,-76
2023-03-21T21:59:22.097Z,-76
2023-03-21T22:01:51.503Z,-74
2023-03-21T22:04:19.178Z,-74
2023-03-21T22:06:47.611Z,-74
2023-03-21T22:09:15.874Z,-73
2023-03-21T22:11:42.497Z,-74
2023-03-21T22:14:08.998Z,-74
2023-03-21T22:16:35.588Z,-74
2023-03-21T22:19:02.129Z,-73
2023-03-21T22:21:28.609Z,-73
2023-03-21T22:23:55.331Z,-73
2023-03-21T22:26:21.970Z,-73
2023-03-21T22:28:48.489Z,-74
2023-03-21T22:31:17.421Z,-73
2023-03-21T22:33:44.562Z,-74
2023-03-21T22:36:11.670Z,-74
2023-03-21T22:38:38.451Z,-73
2023-03-21T22:41:06.412Z,-73
2023-03-21T22:43:34.399Z,-73
2023-03-21T22:46:02.583Z,-73
2023-03-21T22:48:30.181Z,-75
2023-03-21T22:50:58.019Z,-74
2023-03-21T22:53:25.548Z,-74
2023-03-21T22:55:52.049Z,-74
2023-03-21T22:58:18.879Z,-74
2023-03-21T23:00:45.639Z,-73
2023-03-21T23:03:13.050Z,-73
2023-03-21T23:05:43.669Z,-73
2023-03-21T23:08:10.387Z,-73
2023-03-21T23:10:39.183Z,-75
2023-03-21T23:13:06.724Z,-74
2023-03-21T23:15:33.323Z,-72
2023-03-21T23:17:59.857Z,-72
2023-03-21T23:20:26.518Z,-74
2023-03-21T23:22:53.039Z,-73
2023-03-21T23:25:20.732Z,-74
2023-03-21T23:27:47.970Z,-73
2023-03-21T23:30:14.844Z,-73
2023-03-21T23:32:41.476Z,-74
2023-03-21T23:35:09.476Z,-71
2023-03-21T23:37:35.949Z,-68
2023-03-21T23:40:03.565Z,-71
2023-03-21T23:42:30.661Z,-70
2023-03-21T23:44:57.263Z,-70
2023-03-21T23:47:24.031Z,-69
2023-03-21T23:49:52.757Z,-72
2023-03-21T23:52:19.341Z,-67
2023-03-21T23:54:46.217Z,-70
2023-03-21T23:57:12.778Z,-70
2023-03-21T23:59:39.260Z,-69
